sensor_id;sensor_type;location;lat;lon;timestamp;P1;durP1;ratioP1;P2;durP2;ratioP2
27666;SDS011;15074;50.940;5.282;2023-02-21T00:02:12;28.23;;;18.63;;
27666;SDS011;15074;50.940;5.282;2023-02-21T00:04:57;29.10;;;17.45;;
27666;SDS011;15074;50.940;5.282;2023-02-21T00:07:41;30.70;;;17.90;;
27666;SDS011;15074;50.940;5.282;2023-02-21T00:10:25;33.65;;;19.13;;
27666;SDS011;15074;50.940;5.282;2023-02-21T00:13:09;31.20;;;18.48;;
27666;SDS011;15074;50.940;5.282;2023-02-21T00:15:54;27.77;;;17.30;;
27666;SDS011;15074;50.940;5.282;2023-02-21T00:18:38;29.77;;;17.95;;
27666;SDS011;15074;50.940;5.282;2023-02-21T00:21:22;29.65;;;18.73;;
27666;SDS011;15074;50.940;5.282;2023-02-21T00:24:11;26.05;;;18.10;;
27666;SDS011;15074;50.940;5.282;2023-02-21T00:26:57;35.42;;;20.52;;
27666;SDS011;15074;50.940;5.282;2023-02-21T00:29:41;30.60;;;19.40;;
27666;SDS011;15074;50.940;5.282;2023-02-21T00:32:25;35.17;;;19.95;;
27666;SDS011;15074;50.940;5.282;2023-02-21T00:35:10;37.25;;;20.35;;
27666;SDS011;15074;50.940;5.282;2023-02-21T00:37:54;33.42;;;19.92;;
27666;SDS011;15074;50.940;5.282;2023-02-21T00:40:38;27.30;;;18.02;;
27666;SDS011;15074;50.940;5.282;2023-02-21T00:43:29;34.30;;;20.40;;
27666;SDS011;15074;50.940;5.282;2023-02-21T00:46:14;39.15;;;21.50;;
27666;SDS011;15074;50.940;5.282;2023-02-21T00:48:58;31.17;;;18.23;;
27666;SDS011;15074;50.940;5.282;2023-02-21T00:51:43;32.50;;;20.27;;
27666;SDS011;15074;50.940;5.282;2023-02-21T00:54:27;35.38;;;21.60;;
27666;SDS011;15074;50.940;5.282;2023-02-21T00:57:11;32.35;;;19.88;;
27666;SDS011;15074;50.940;5.282;2023-02-21T00:59:56;30.45;;;21.15;;
27666;SDS011;15074;50.940;5.282;2023-02-21T01:02:40;37.63;;;21.40;;
27666;SDS011;15074;50.940;5.282;2023-02-21T01:05:24;29.20;;;18.55;;
27666;SDS011;15074;50.940;5.282;2023-02-21T01:08:08;33.97;;;19.20;;
27666;SDS011;15074;50.940;5.282;2023-02-21T01:10:52;29.20;;;17.80;;
27666;SDS011;15074;50.940;5.282;2023-02-21T01:13:36;28.10;;;17.98;;
27666;SDS011;15074;50.940;5.282;2023-02-21T01:16:20;36.72;;;18.98;;
27666;SDS011;15074;50.940;5.282;2023-02-21T01:19:05;39.60;;;19.02;;
27666;SDS011;15074;50.940;5.282;2023-02-21T01:21:49;32.75;;;18.40;;
27666;SDS011;15074;50.940;5.282;2023-02-21T01:24:33;28.08;;;18.33;;
27666;SDS011;15074;50.940;5.282;2023-02-21T01:27:17;36.72;;;18.23;;
27666;SDS011;15074;50.940;5.282;2023-02-21T01:30:02;39.42;;;19.77;;
27666;SDS011;15074;50.940;5.282;2023-02-21T01:32:47;31.45;;;17.55;;
27666;SDS011;15074;50.940;5.282;2023-02-21T01:35:31;27.50;;;16.83;;
27666;SDS011;15074;50.940;5.282;2023-02-21T01:38:15;25.38;;;18.75;;
27666;SDS011;15074;50.940;5.282;2023-02-21T01:40:59;26.98;;;17.42;;
27666;SDS011;15074;50.940;5.282;2023-02-21T01:44:00;27.05;;;17.02;;
27666;SDS011;15074;50.940;5.282;2023-02-21T01:46:45;26.02;;;16.98;;
27666;SDS011;15074;50.940;5.282;2023-02-21T01:49:29;22.52;;;17.05;;
27666;SDS011;15074;50.940;5.282;2023-02-21T01:52:15;25.95;;;16.77;;
27666;SDS011;15074;50.940;5.282;2023-02-21T01:55:00;30.20;;;18.27;;
27666;SDS011;15074;50.940;5.282;2023-02-21T01:57:45;30.52;;;19.35;;
27666;SDS011;15074;50.940;5.282;2023-02-21T02:00:29;30.38;;;18.23;;
27666;SDS011;15074;50.940;5.282;2023-02-21T02:03:15;29.95;;;18.80;;
27666;SDS011;15074;50.940;5.282;2023-02-21T02:06:06;26.27;;;17.75;;
27666;SDS011;15074;50.940;5.282;2023-02-21T02:08:52;34.60;;;19.38;;
27666;SDS011;15074;50.940;5.282;2023-02-21T02:21:23;27.15;;;17.17;;
27666;SDS011;15074;50.940;5.282;2023-02-21T02:27:31;33.38;;;18.63;;
27666;SDS011;15074;50.940;5.282;2023-02-21T02:37:48;32.83;;;18.75;;
27666;SDS011;15074;50.940;5.282;2023-02-21T02:40:41;41.83;;;20.25;;
27666;SDS011;15074;50.940;5.282;2023-02-21T02:43:29;39.85;;;18.98;;
27666;SDS011;15074;50.940;5.282;2023-02-21T02:46:16;45.40;;;23.58;;
27666;SDS011;15074;50.940;5.282;2023-02-21T02:48:52;40.85;;;19.52;;
27666;SDS011;15074;50.940;5.282;2023-02-21T02:51:20;37.30;;;18.65;;
27666;SDS011;15074;50.940;5.282;2023-02-21T02:53:46;41.92;;;20.38;;
27666;SDS011;15074;50.940;5.282;2023-02-21T02:56:13;40.88;;;19.83;;
27666;SDS011;15074;50.940;5.282;2023-02-21T03:03:53;43.35;;;19.58;;
27666;SDS011;15074;50.940;5.282;2023-02-21T03:06:25;44.05;;;23.35;;
27666;SDS011;15074;50.940;5.282;2023-02-21T03:11:55;33.25;;;18.65;;
27666;SDS011;15074;50.940;5.282;2023-02-21T03:14:29;47.50;;;20.45;;
27666;SDS011;15074;50.940;5.282;2023-02-21T03:17:02;47.83;;;20.02;;
27666;SDS011;15074;50.940;5.282;2023-02-21T03:19:35;40.95;;;21.02;;
27666;SDS011;15074;50.940;5.282;2023-02-21T03:22:04;45.80;;;20.60;;
27666;SDS011;15074;50.940;5.282;2023-02-21T03:24:33;45.63;;;20.55;;
27666;SDS011;15074;50.940;5.282;2023-02-21T03:27:03;54.20;;;21.08;;
27666;SDS011;15074;50.940;5.282;2023-02-21T03:29:31;43.20;;;20.10;;
27666;SDS011;15074;50.940;5.282;2023-02-21T03:32:33;39.70;;;19.63;;
27666;SDS011;15074;50.940;5.282;2023-02-21T03:34:52;40.38;;;18.45;;
27666;SDS011;15074;50.940;5.282;2023-02-21T03:37:20;37.42;;;18.25;;
27666;SDS011;15074;50.940;5.282;2023-02-21T03:39:53;43.08;;;18.35;;
27666;SDS011;15074;50.940;5.282;2023-02-21T03:42:19;37.90;;;17.05;;
27666;SDS011;15074;50.940;5.282;2023-02-21T03:44:45;26.63;;;16.80;;
27666;SDS011;15074;50.940;5.282;2023-02-21T03:47:10;31.73;;;17.92;;
27666;SDS011;15074;50.940;5.282;2023-02-21T03:49:36;42.22;;;18.00;;
27666;SDS011;15074;50.940;5.282;2023-02-21T03:52:02;39.95;;;17.55;;
27666;SDS011;15074;50.940;5.282;2023-02-21T03:54:28;47.03;;;20.27;;
27666;SDS011;15074;50.940;5.282;2023-02-21T03:56:53;45.28;;;21.98;;
27666;SDS011;15074;50.940;5.282;2023-02-21T03:59:19;51.10;;;21.38;;
27666;SDS011;15074;50.940;5.282;2023-02-21T04:01:44;54.60;;;21.58;;
27666;SDS011;15074;50.940;5.282;2023-02-21T04:04:10;47.35;;;20.95;;
27666;SDS011;15074;50.940;5.282;2023-02-21T04:06:36;46.50;;;19.85;;
27666;SDS011;15074;50.940;5.282;2023-02-21T04:09:01;48.30;;;21.15;;
27666;SDS011;15074;50.940;5.282;2023-02-21T04:11:27;52.20;;;22.92;;
27666;SDS011;15074;50.940;5.282;2023-02-21T04:13:53;55.67;;;23.10;;
27666;SDS011;15074;50.940;5.282;2023-02-21T04:16:18;52.33;;;23.00;;
27666;SDS011;15074;50.940;5.282;2023-02-21T04:18:44;50.92;;;23.15;;
27666;SDS011;15074;50.940;5.282;2023-02-21T04:21:23;54.50;;;22.48;;
27666;SDS011;15074;50.940;5.282;2023-02-21T04:23:49;49.00;;;21.80;;
27666;SDS011;15074;50.940;5.282;2023-02-21T04:26:15;47.20;;;21.27;;
27666;SDS011;15074;50.940;5.282;2023-02-21T04:28:41;52.70;;;22.75;;
27666;SDS011;15074;50.940;5.282;2023-02-21T04:31:07;55.30;;;22.75;;
27666;SDS011;15074;50.940;5.282;2023-02-21T04:33:32;56.53;;;24.23;;
27666;SDS011;15074;50.940;5.282;2023-02-21T04:35:58;60.08;;;28.75;;
27666;SDS011;15074;50.940;5.282;2023-02-21T04:38:24;52.28;;;20.90;;
27666;SDS011;15074;50.940;5.282;2023-02-21T04:40:49;43.80;;;20.85;;
27666;SDS011;15074;50.940;5.282;2023-02-21T04:43:15;45.72;;;20.88;;
27666;SDS011;15074;50.940;5.282;2023-02-21T04:45:41;47.08;;;20.13;;
27666;SDS011;15074;50.940;5.282;2023-02-21T04:48:07;39.90;;;17.73;;
27666;SDS011;15074;50.940;5.282;2023-02-21T04:50:32;50.15;;;21.58;;
27666;SDS011;15074;50.940;5.282;2023-02-21T04:52:58;46.38;;;21.20;;
27666;SDS011;15074;50.940;5.282;2023-02-21T04:55:24;44.20;;;18.08;;
27666;SDS011;15074;50.940;5.282;2023-02-21T04:57:50;37.10;;;18.40;;
27666;SDS011;15074;50.940;5.282;2023-02-21T05:00:15;38.83;;;20.20;;
27666;SDS011;15074;50.940;5.282;2023-02-21T05:02:41;42.08;;;19.15;;
27666;SDS011;15074;50.940;5.282;2023-02-21T05:05:08;33.60;;;16.98;;
27666;SDS011;15074;50.940;5.282;2023-02-21T05:07:34;31.90;;;17.45;;
27666;SDS011;15074;50.940;5.282;2023-02-21T05:10:00;33.60;;;17.60;;
27666;SDS011;15074;50.940;5.282;2023-02-21T05:12:25;38.30;;;17.08;;
27666;SDS011;15074;50.940;5.282;2023-02-21T05:14:51;38.83;;;16.85;;
27666;SDS011;15074;50.940;5.282;2023-02-21T05:17:17;35.05;;;16.50;;
27666;SDS011;15074;50.940;5.282;2023-02-21T05:19:45;28.73;;;15.13;;
27666;SDS011;15074;50.940;5.282;2023-02-21T05:22:11;29.73;;;14.75;;
27666;SDS011;15074;50.940;5.282;2023-02-21T05:24:39;27.20;;;15.45;;
27666;SDS011;15074;50.940;5.282;2023-02-21T05:27:06;36.50;;;17.23;;
27666;SDS011;15074;50.940;5.282;2023-02-21T05:29:35;30.40;;;16.05;;
27666;SDS011;15074;50.940;5.282;2023-02-21T05:32:01;32.75;;;15.25;;
27666;SDS011;15074;50.940;5.282;2023-02-21T05:34:27;27.20;;;15.30;;
27666;SDS011;15074;50.940;5.282;2023-02-21T05:36:53;33.83;;;16.17;;
27666;SDS011;15074;50.940;5.282;2023-02-21T05:39:18;27.13;;;15.70;;
27666;SDS011;15074;50.940;5.282;2023-02-21T05:41:47;34.33;;;15.85;;
27666;SDS011;15074;50.940;5.282;2023-02-21T05:44:14;27.60;;;15.35;;
27666;SDS011;15074;50.940;5.282;2023-02-21T05:46:40;36.33;;;16.85;;
27666;SDS011;15074;50.940;5.282;2023-02-21T05:49:06;31.52;;;16.08;;
27666;SDS011;15074;50.940;5.282;2023-02-21T05:51:39;35.30;;;16.58;;
27666;SDS011;15074;50.940;5.282;2023-02-21T05:54:07;36.22;;;16.13;;
27666;SDS011;15074;50.940;5.282;2023-02-21T05:56:36;40.10;;;17.77;;
27666;SDS011;15074;50.940;5.282;2023-02-21T05:59:03;39.92;;;17.50;;
27666;SDS011;15074;50.940;5.282;2023-02-21T06:01:29;40.40;;;19.25;;
27666;SDS011;15074;50.940;5.282;2023-02-21T06:03:55;41.00;;;18.40;;
27666;SDS011;15074;50.940;5.282;2023-02-21T06:06:21;48.50;;;18.65;;
27666;SDS011;15074;50.940;5.282;2023-02-21T06:08:47;37.08;;;17.95;;
27666;SDS011;15074;50.940;5.282;2023-02-21T06:11:14;43.63;;;17.35;;
27666;SDS011;15074;50.940;5.282;2023-02-21T06:13:47;33.33;;;16.45;;
27666;SDS011;15074;50.940;5.282;2023-02-21T06:16:15;36.75;;;16.20;;
27666;SDS011;15074;50.940;5.282;2023-02-21T06:18:40;37.05;;;17.25;;
27666;SDS011;15074;50.940;5.282;2023-02-21T06:21:06;31.88;;;16.63;;
27666;SDS011;15074;50.940;5.282;2023-02-21T06:23:32;34.20;;;16.00;;
27666;SDS011;15074;50.940;5.282;2023-02-21T06:25:57;36.38;;;17.15;;
27666;SDS011;15074;50.940;5.282;2023-02-21T06:28:27;33.20;;;16.65;;
27666;SDS011;15074;50.940;5.282;2023-02-21T06:30:54;46.80;;;21.65;;
27666;SDS011;15074;50.940;5.282;2023-02-21T06:33:20;33.10;;;16.77;;
27666;SDS011;15074;50.940;5.282;2023-02-21T06:35:45;35.85;;;18.83;;
27666;SDS011;15074;50.940;5.282;2023-02-21T06:38:11;31.23;;;17.13;;
27666;SDS011;15074;50.940;5.282;2023-02-21T06:40:37;39.42;;;19.10;;
27666;SDS011;15074;50.940;5.282;2023-02-21T06:43:02;34.75;;;19.20;;
27666;SDS011;15074;50.940;5.282;2023-02-21T06:45:28;27.42;;;15.40;;
27666;SDS011;15074;50.940;5.282;2023-02-21T06:47:54;23.52;;;14.45;;
27666;SDS011;15074;50.940;5.282;2023-02-21T06:50:19;22.75;;;13.40;;
27666;SDS011;15074;50.940;5.282;2023-02-21T06:52:45;25.02;;;12.95;;
27666;SDS011;15074;50.940;5.282;2023-02-21T06:55:11;23.98;;;13.35;;
27666;SDS011;15074;50.940;5.282;2023-02-21T06:57:36;17.27;;;12.63;;
27666;SDS011;15074;50.940;5.282;2023-02-21T07:00:03;19.67;;;12.05;;
27666;SDS011;15074;50.940;5.282;2023-02-21T07:02:30;26.38;;;14.88;;
27666;SDS011;15074;50.940;5.282;2023-02-21T07:04:55;22.00;;;14.30;;
27666;SDS011;15074;50.940;5.282;2023-02-21T07:07:21;23.67;;;13.00;;
27666;SDS011;15074;50.940;5.282;2023-02-21T07:09:47;20.42;;;12.95;;
27666;SDS011;15074;50.940;5.282;2023-02-21T07:12:13;20.10;;;14.05;;
27666;SDS011;15074;50.940;5.282;2023-02-21T07:14:38;18.65;;;12.25;;
27666;SDS011;15074;50.940;5.282;2023-02-21T07:17:04;18.98;;;11.63;;
27666;SDS011;15074;50.940;5.282;2023-02-21T07:19:30;18.80;;;11.68;;
27666;SDS011;15074;50.940;5.282;2023-02-21T07:21:56;17.27;;;11.32;;
27666;SDS011;15074;50.940;5.282;2023-02-21T07:24:22;19.65;;;11.18;;
27666;SDS011;15074;50.940;5.282;2023-02-21T07:26:47;16.85;;;11.63;;
27666;SDS011;15074;50.940;5.282;2023-02-21T07:29:13;14.13;;;9.88;;
27666;SDS011;15074;50.940;5.282;2023-02-21T07:31:39;20.40;;;11.98;;
27666;SDS011;15074;50.940;5.282;2023-02-21T07:34:05;18.38;;;11.63;;
27666;SDS011;15074;50.940;5.282;2023-02-21T07:36:30;21.10;;;11.73;;
27666;SDS011;15074;50.940;5.282;2023-02-21T07:38:56;17.60;;;11.73;;
27666;SDS011;15074;50.940;5.282;2023-02-21T07:41:22;19.75;;;11.70;;
27666;SDS011;15074;50.940;5.282;2023-02-21T07:43:47;17.67;;;11.30;;
27666;SDS011;15074;50.940;5.282;2023-02-21T07:46:14;15.20;;;11.13;;
27666;SDS011;15074;50.940;5.282;2023-02-21T07:48:42;15.90;;;10.88;;
27666;SDS011;15074;50.940;5.282;2023-02-21T07:51:08;14.35;;;9.90;;
27666;SDS011;15074;50.940;5.282;2023-02-21T07:53:34;16.52;;;10.55;;
27666;SDS011;15074;50.940;5.282;2023-02-21T07:56:00;15.15;;;10.15;;
27666;SDS011;15074;50.940;5.282;2023-02-21T07:58:26;13.57;;;9.88;;
27666;SDS011;15074;50.940;5.282;2023-02-21T08:00:52;16.50;;;11.38;;
27666;SDS011;15074;50.940;5.282;2023-02-21T08:03:19;17.40;;;10.13;;
27666;SDS011;15074;50.940;5.282;2023-02-21T08:05:45;15.43;;;10.75;;
27666;SDS011;15074;50.940;5.282;2023-02-21T08:08:11;14.52;;;10.43;;
27666;SDS011;15074;50.940;5.282;2023-02-21T08:10:38;16.58;;;11.23;;
27666;SDS011;15074;50.940;5.282;2023-02-21T08:13:04;16.23;;;10.65;;
27666;SDS011;15074;50.940;5.282;2023-02-21T08:15:29;23.02;;;11.95;;
27666;SDS011;15074;50.940;5.282;2023-02-21T08:17:55;16.60;;;10.60;;
27666;SDS011;15074;50.940;5.282;2023-02-21T08:20:21;19.40;;;11.68;;
27666;SDS011;15074;50.940;5.282;2023-02-21T08:22:46;14.82;;;10.68;;
27666;SDS011;15074;50.940;5.282;2023-02-21T08:25:12;16.23;;;10.80;;
27666;SDS011;15074;50.940;5.282;2023-02-21T08:27:40;16.83;;;11.77;;
27666;SDS011;15074;50.940;5.282;2023-02-21T08:30:07;18.47;;;12.30;;
27666;SDS011;15074;50.940;5.282;2023-02-21T08:32:35;16.65;;;11.70;;
27666;SDS011;15074;50.940;5.282;2023-02-21T08:35:01;17.92;;;12.25;;
27666;SDS011;15074;50.940;5.282;2023-02-21T08:37:29;24.58;;;12.30;;
27666;SDS011;15074;50.940;5.282;2023-02-21T08:39:57;22.40;;;12.52;;
27666;SDS011;15074;50.940;5.282;2023-02-21T08:42:24;21.05;;;12.65;;
27666;SDS011;15074;50.940;5.282;2023-02-21T08:44:49;17.38;;;10.88;;
27666;SDS011;15074;50.940;5.282;2023-02-21T08:47:15;19.33;;;13.25;;
27666;SDS011;15074;50.940;5.282;2023-02-21T08:49:46;22.55;;;11.38;;
27666;SDS011;15074;50.940;5.282;2023-02-21T08:52:13;16.92;;;9.95;;
27666;SDS011;15074;50.940;5.282;2023-02-21T08:54:43;14.52;;;10.38;;
27666;SDS011;15074;50.940;5.282;2023-02-21T08:57:09;17.10;;;9.88;;
27666;SDS011;15074;50.940;5.282;2023-02-21T08:59:38;17.23;;;11.43;;
27666;SDS011;15074;50.940;5.282;2023-02-21T09:02:19;19.02;;;11.73;;
27666;SDS011;15074;50.940;5.282;2023-02-21T09:04:46;15.05;;;10.25;;
27666;SDS011;15074;50.940;5.282;2023-02-21T09:07:13;17.63;;;11.10;;
27666;SDS011;15074;50.940;5.282;2023-02-21T09:09:40;18.83;;;10.20;;
27666;SDS011;15074;50.940;5.282;2023-02-21T09:12:06;18.45;;;11.48;;
27666;SDS011;15074;50.940;5.282;2023-02-21T09:14:35;16.17;;;10.25;;
27666;SDS011;15074;50.940;5.282;2023-02-21T09:17:03;15.82;;;9.93;;
27666;SDS011;15074;50.940;5.282;2023-02-21T09:19:29;13.40;;;10.35;;
27666;SDS011;15074;50.940;5.282;2023-02-21T09:21:56;14.55;;;11.43;;
27666;SDS011;15074;50.940;5.282;2023-02-21T09:24:23;13.85;;;11.60;;
27666;SDS011;15074;50.940;5.282;2023-02-21T09:26:53;14.68;;;8.55;;
27666;SDS011;15074;50.940;5.282;2023-02-21T09:29:23;15.20;;;9.45;;
27666;SDS011;15074;50.940;5.282;2023-02-21T09:31:51;12.38;;;8.70;;
27666;SDS011;15074;50.940;5.282;2023-02-21T09:34:17;11.20;;;8.27;;
27666;SDS011;15074;50.940;5.282;2023-02-21T09:36:43;11.48;;;8.95;;
27666;SDS011;15074;50.940;5.282;2023-02-21T09:39:09;10.13;;;7.53;;
27666;SDS011;15074;50.940;5.282;2023-02-21T09:41:36;10.60;;;8.80;;
27666;SDS011;15074;50.940;5.282;2023-02-21T09:44:04;9.30;;;7.25;;
27666;SDS011;15074;50.940;5.282;2023-02-21T09:46:41;11.13;;;9.15;;
27666;SDS011;15074;50.940;5.282;2023-02-21T09:49:29;12.77;;;9.18;;
27666;SDS011;15074;50.940;5.282;2023-02-21T09:52:04;11.93;;;9.40;;
27666;SDS011;15074;50.940;5.282;2023-02-21T09:57:04;13.45;;;9.50;;
27666;SDS011;15074;50.940;5.282;2023-02-21T09:59:34;10.95;;;8.15;;
27666;SDS011;15074;50.940;5.282;2023-02-21T10:10:21;13.80;;;7.97;;
27666;SDS011;15074;50.940;5.282;2023-02-21T10:15:50;8.68;;;7.22;;
27666;SDS011;15074;50.940;5.282;2023-02-21T10:18:33;10.00;;;7.88;;
27666;SDS011;15074;50.940;5.282;2023-02-21T10:21:28;8.13;;;6.88;;
27666;SDS011;15074;50.940;5.282;2023-02-21T10:23:59;10.63;;;7.70;;
27666;SDS011;15074;50.940;5.282;2023-02-21T10:26:30;9.70;;;7.90;;
27666;SDS011;15074;50.940;5.282;2023-02-21T10:29:01;9.77;;;8.27;;
27666;SDS011;15074;50.940;5.282;2023-02-21T10:31:35;10.40;;;8.60;;
27666;SDS011;15074;50.940;5.282;2023-02-21T10:34:04;10.52;;;8.55;;
27666;SDS011;15074;50.940;5.282;2023-02-21T10:36:31;10.13;;;8.13;;
27666;SDS011;15074;50.940;5.282;2023-02-21T10:39:03;11.02;;;8.27;;
27666;SDS011;15074;50.940;5.282;2023-02-21T10:41:33;10.73;;;8.35;;
27666;SDS011;15074;50.940;5.282;2023-02-21T10:44:05;9.63;;;8.23;;
27666;SDS011;15074;50.940;5.282;2023-02-21T10:46:44;9.82;;;8.38;;
27666;SDS011;15074;50.940;5.282;2023-02-21T10:49:20;10.20;;;8.32;;
27666;SDS011;15074;50.940;5.282;2023-02-21T10:55:01;12.25;;;9.85;;
27666;SDS011;15074;50.940;5.282;2023-02-21T10:57:27;10.45;;;8.43;;
27666;SDS011;15074;50.940;5.282;2023-02-21T10:59:55;11.95;;;9.18;;
27666;SDS011;15074;50.940;5.282;2023-02-21T11:02:34;14.18;;;12.68;;
27666;SDS011;15074;50.940;5.282;2023-02-21T11:05:22;14.70;;;11.48;;
27666;SDS011;15074;50.940;5.282;2023-02-21T11:10:56;16.83;;;13.13;;
27666;SDS011;15074;50.940;5.282;2023-02-21T11:13:21;10.18;;;8.82;;
27666;SDS011;15074;50.940;5.282;2023-02-21T11:15:47;13.30;;;9.85;;
27666;SDS011;15074;50.940;5.282;2023-02-21T11:18:30;12.15;;;10.85;;
27666;SDS011;15074;50.940;5.282;2023-02-21T11:20:56;12.50;;;9.50;;
27666;SDS011;15074;50.940;5.282;2023-02-21T11:23:48;16.95;;;12.35;;
27666;SDS011;15074;50.940;5.282;2023-02-21T11:26:28;16.63;;;13.98;;
27666;SDS011;15074;50.940;5.282;2023-02-21T11:31:31;13.40;;;10.85;;
27666;SDS011;15074;50.940;5.282;2023-02-21T11:34:01;13.18;;;9.80;;
27666;SDS011;15074;50.940;5.282;2023-02-21T11:36:30;14.07;;;11.60;;
27666;SDS011;15074;50.940;5.282;2023-02-21T11:38:59;15.95;;;11.00;;
27666;SDS011;15074;50.940;5.282;2023-02-21T11:41:29;15.90;;;12.57;;
27666;SDS011;15074;50.940;5.282;2023-02-21T11:44:01;15.05;;;11.27;;
27666;SDS011;15074;50.940;5.282;2023-02-21T11:46:43;17.98;;;12.05;;
27666;SDS011;15074;50.940;5.282;2023-02-21T11:49:25;23.05;;;13.90;;
27666;SDS011;15074;50.940;5.282;2023-02-21T11:52:01;26.10;;;15.15;;
27666;SDS011;15074;50.940;5.282;2023-02-21T11:54:33;22.40;;;15.98;;
27666;SDS011;15074;50.940;5.282;2023-02-21T11:57:09;15.68;;;12.93;;
27666;SDS011;15074;50.940;5.282;2023-02-21T12:10:49;18.20;;;11.82;;
27666;SDS011;15074;50.940;5.282;2023-02-21T12:28:52;19.45;;;13.30;;
27666;SDS011;15074;50.940;5.282;2023-02-21T12:36:34;22.15;;;13.85;;
27666;SDS011;15074;50.940;5.282;2023-02-21T12:39:19;20.38;;;13.65;;
27666;SDS011;15074;50.940;5.282;2023-02-21T12:47:29;21.90;;;13.95;;
27666;SDS011;15074;50.940;5.282;2023-02-21T12:52:27;20.60;;;12.68;;
27666;SDS011;15074;50.940;5.282;2023-02-21T12:55:15;21.30;;;12.80;;
27666;SDS011;15074;50.940;5.282;2023-02-21T12:58:09;16.58;;;12.70;;
27666;SDS011;15074;50.940;5.282;2023-02-21T13:03:32;16.50;;;12.25;;
27666;SDS011;15074;50.940;5.282;2023-02-21T13:06:23;16.63;;;12.50;;
27666;SDS011;15074;50.940;5.282;2023-02-21T13:14:23;22.15;;;15.73;;
27666;SDS011;15074;50.940;5.282;2023-02-21T13:17:03;26.33;;;15.55;;
27666;SDS011;15074;50.940;5.282;2023-02-21T13:19:49;24.88;;;15.40;;
27666;SDS011;15074;50.940;5.282;2023-02-21T13:25:57;21.08;;;12.57;;
27666;SDS011;15074;50.940;5.282;2023-02-21T13:28:29;20.75;;;13.65;;
27666;SDS011;15074;50.940;5.282;2023-02-21T13:31:01;19.38;;;13.50;;
27666;SDS011;15074;50.940;5.282;2023-02-21T13:33:34;15.88;;;13.23;;
27666;SDS011;15074;50.940;5.282;2023-02-21T13:36:00;18.05;;;14.48;;
27666;SDS011;15074;50.940;5.282;2023-02-21T13:38:27;15.95;;;12.35;;
27666;SDS011;15074;50.940;5.282;2023-02-21T13:41:02;18.00;;;12.63;;
27666;SDS011;15074;50.940;5.282;2023-02-21T13:43:35;18.73;;;13.40;;
27666;SDS011;15074;50.940;5.282;2023-02-21T13:57:36;15.05;;;12.07;;
27666;SDS011;15074;50.940;5.282;2023-02-21T14:03:04;17.70;;;12.20;;
27666;SDS011;15074;50.940;5.282;2023-02-21T14:10:49;14.93;;;13.43;;
27666;SDS011;15074;50.940;5.282;2023-02-21T14:13:19;13.45;;;10.27;;
27666;SDS011;15074;50.940;5.282;2023-02-21T14:15:49;12.60;;;11.30;;
27666;SDS011;15074;50.940;5.282;2023-02-21T14:18:29;13.25;;;10.65;;
27666;SDS011;15074;50.940;5.282;2023-02-21T14:21:13;19.30;;;16.30;;
27666;SDS011;15074;50.940;5.282;2023-02-21T14:23:46;12.57;;;11.20;;
27666;SDS011;15074;50.940;5.282;2023-02-21T14:29:00;14.65;;;10.00;;
27666;SDS011;15074;50.940;5.282;2023-02-21T14:42:45;10.77;;;9.23;;
27666;SDS011;15074;50.940;5.282;2023-02-21T14:48:15;19.45;;;13.48;;
27666;SDS011;15074;50.940;5.282;2023-02-21T15:02:41;12.10;;;10.48;;
27666;SDS011;15074;50.940;5.282;2023-02-21T15:05:29;11.35;;;10.13;;
27666;SDS011;15074;50.940;5.282;2023-02-21T15:08:16;12.05;;;10.35;;
27666;SDS011;15074;50.940;5.282;2023-02-21T15:10:44;12.20;;;10.90;;
27666;SDS011;15074;50.940;5.282;2023-02-21T15:13:23;14.13;;;11.20;;
27666;SDS011;15074;50.940;5.282;2023-02-21T15:18:25;12.40;;;9.97;;
27666;SDS011;15074;50.940;5.282;2023-02-21T15:21:03;12.13;;;10.00;;
27666;SDS011;15074;50.940;5.282;2023-02-21T15:23:31;17.88;;;11.13;;
27666;SDS011;15074;50.940;5.282;2023-02-21T15:25:58;14.30;;;10.70;;
27666;SDS011;15074;50.940;5.282;2023-02-21T15:28:30;16.52;;;10.73;;
27666;SDS011;15074;50.940;5.282;2023-02-21T15:31:07;16.10;;;11.68;;
27666;SDS011;15074;50.940;5.282;2023-02-21T15:33:35;11.95;;;10.15;;
27666;SDS011;15074;50.940;5.282;2023-02-21T15:36:06;13.13;;;10.35;;
27666;SDS011;15074;50.940;5.282;2023-02-21T15:38:41;12.40;;;10.63;;
27666;SDS011;15074;50.940;5.282;2023-02-21T15:41:32;16.80;;;11.05;;
27666;SDS011;15074;50.940;5.282;2023-02-21T15:44:15;14.63;;;10.75;;
27666;SDS011;15074;50.940;5.282;2023-02-21T15:49:59;15.52;;;10.77;;
27666;SDS011;15074;50.940;5.282;2023-02-21T15:52:35;13.88;;;10.43;;
27666;SDS011;15074;50.940;5.282;2023-02-21T15:55:12;13.65;;;11.48;;
27666;SDS011;15074;50.940;5.282;2023-02-21T15:57:39;16.55;;;11.82;;
27666;SDS011;15074;50.940;5.282;2023-02-21T16:02:51;17.35;;;11.20;;
27666;SDS011;15074;50.940;5.282;2023-02-21T16:05:37;14.50;;;11.45;;
27666;SDS011;15074;50.940;5.282;2023-02-21T16:08:03;14.95;;;11.57;;
27666;SDS011;15074;50.940;5.282;2023-02-21T16:10:29;19.35;;;12.93;;
27666;SDS011;15074;50.940;5.282;2023-02-21T16:12:59;14.23;;;11.45;;
27666;SDS011;15074;50.940;5.282;2023-02-21T16:15:30;19.40;;;12.05;;
27666;SDS011;15074;50.940;5.282;2023-02-21T16:17:58;17.98;;;12.27;;
27666;SDS011;15074;50.940;5.282;2023-02-21T16:20:37;18.35;;;13.38;;
27666;SDS011;15074;50.940;5.282;2023-02-21T16:23:12;20.67;;;15.35;;
27666;SDS011;15074;50.940;5.282;2023-02-21T16:28:19;15.00;;;10.77;;
27666;SDS011;15074;50.940;5.282;2023-02-21T16:30:44;16.33;;;10.75;;
27666;SDS011;15074;50.940;5.282;2023-02-21T16:33:11;18.60;;;11.77;;
27666;SDS011;15074;50.940;5.282;2023-02-21T16:35:37;20.63;;;14.65;;
27666;SDS011;15074;50.940;5.282;2023-02-21T16:38:04;22.20;;;12.80;;
27666;SDS011;15074;50.940;5.282;2023-02-21T16:40:33;20.23;;;12.65;;
27666;SDS011;15074;50.940;5.282;2023-02-21T16:43:00;20.50;;;12.32;;
27666;SDS011;15074;50.940;5.282;2023-02-21T16:45:28;20.40;;;13.30;;
27666;SDS011;15074;50.940;5.282;2023-02-21T16:47:59;22.17;;;12.55;;
27666;SDS011;15074;50.940;5.282;2023-02-21T16:50:28;17.33;;;12.75;;
27666;SDS011;15074;50.940;5.282;2023-02-21T16:52:56;18.48;;;12.52;;
27666;SDS011;15074;50.940;5.282;2023-02-21T16:55:23;18.35;;;11.60;;
27666;SDS011;15074;50.940;5.282;2023-02-21T16:57:49;16.73;;;11.73;;
27666;SDS011;15074;50.940;5.282;2023-02-21T17:00:18;15.95;;;11.70;;
27666;SDS011;15074;50.940;5.282;2023-02-21T17:02:45;23.40;;;12.27;;
27666;SDS011;15074;50.940;5.282;2023-02-21T17:05:15;17.30;;;12.93;;
27666;SDS011;15074;50.940;5.282;2023-02-21T17:07:41;22.60;;;13.00;;
27666;SDS011;15074;50.940;5.282;2023-02-21T17:10:07;19.30;;;12.20;;
27666;SDS011;15074;50.940;5.282;2023-02-21T17:12:33;19.25;;;12.18;;
27666;SDS011;15074;50.940;5.282;2023-02-21T17:14:59;21.17;;;13.48;;
27666;SDS011;15074;50.940;5.282;2023-02-21T17:17:25;23.45;;;12.85;;
27666;SDS011;15074;50.940;5.282;2023-02-21T17:19:50;27.45;;;13.73;;
27666;SDS011;15074;50.940;5.282;2023-02-21T17:22:16;31.20;;;14.18;;
27666;SDS011;15074;50.940;5.282;2023-02-21T17:24:42;22.90;;;13.35;;
27666;SDS011;15074;50.940;5.282;2023-02-21T17:27:07;19.52;;;13.02;;
27666;SDS011;15074;50.940;5.282;2023-02-21T17:29:33;20.63;;;13.55;;
27666;SDS011;15074;50.940;5.282;2023-02-21T17:31:59;20.90;;;13.68;;
27666;SDS011;15074;50.940;5.282;2023-02-21T17:34:31;16.63;;;12.10;;